sensor_id;sensor_type;location;lat;lon;timestamp;P1;durP1;ratioP1;P2;durP2;ratioP2
80297;SDS011;69599;52.622;9.230;2023-08-17T00:01:59;4.38;;;1.77;;
80297;SDS011;69599;52.622;9.230;2023-08-17T00:04:25;4.68;;;1.73;;
80297;SDS011;69599;52.622;9.230;2023-08-17T00:06:50;4.82;;;1.80;;
80297;SDS011;69599;52.622;9.230;2023-08-17T00:09:16;3.95;;;2.13;;
80297;SDS011;69599;52.622;9.230;2023-08-17T00:11:41;4.20;;;2.20;;
80297;SDS011;69599;52.622;9.230;2023-08-17T00:14:07;5.28;;;2.38;;
80297;SDS011;69599;52.622;9.230;2023-08-17T00:16:32;2.75;;;1.90;;
80297;SDS011;69599;52.622;9.230;2023-08-17T00:18:57;7.78;;;1.80;;
80297;SDS011;69599;52.622;9.230;2023-08-17T00:21:23;2.60;;;1.80;;
80297;SDS011;69599;52.622;9.230;2023-08-17T00:23:49;4.90;;;1.75;;
80297;SDS011;69599;52.622;9.230;2023-08-17T00:26:14;3.45;;;1.58;;
80297;SDS011;69599;52.622;9.230;2023-08-17T00:28:40;4.32;;;2.13;;
80297;SDS011;69599;52.622;9.230;2023-08-17T00:31:05;6.13;;;1.75;;
80297;SDS011;69599;52.622;9.230;2023-08-17T00:33:31;9.00;;;2.10;;
80297;SDS011;69599;52.622;9.230;2023-08-17T00:35:56;6.45;;;2.00;;
80297;SDS011;69599;52.622;9.230;2023-08-17T00:38:22;5.40;;;2.08;;
80297;SDS011;69599;52.622;9.230;2023-08-17T00:40:47;5.28;;;2.20;;
80297;SDS011;69599;52.622;9.230;2023-08-17T00:43:13;3.25;;;1.90;;
80297;SDS011;69599;52.622;9.230;2023-08-17T00:45:38;3.97;;;1.90;;
80297;SDS011;69599;52.622;9.230;2023-08-17T00:48:05;3.75;;;1.85;;
80297;SDS011;69599;52.622;9.230;2023-08-17T00:50:32;4.22;;;2.08;;
80297;SDS011;69599;52.622;9.230;2023-08-17T00:53:00;4.28;;;1.80;;
80297;SDS011;69599;52.622;9.230;2023-08-17T00:55:25;2.83;;;1.88;;
80297;SDS011;69599;52.622;9.230;2023-08-17T00:57:51;3.80;;;1.83;;
80297;SDS011;69599;52.622;9.230;2023-08-17T01:00:17;5.50;;;2.00;;
80297;SDS011;69599;52.622;9.230;2023-08-17T01:02:43;4.50;;;1.58;;
80297;SDS011;69599;52.622;9.230;2023-08-17T01:05:09;3.80;;;1.95;;
80297;SDS011;69599;52.622;9.230;2023-08-17T01:07:35;4.95;;;2.13;;
80297;SDS011;69599;52.622;9.230;2023-08-17T01:10:01;4.28;;;1.88;;
80297;SDS011;69599;52.622;9.230;2023-08-17T01:12:30;5.82;;;2.00;;
80297;SDS011;69599;52.622;9.230;2023-08-17T01:17:40;5.40;;;2.00;;
80297;SDS011;69599;52.622;9.230;2023-08-17T01:20:10;4.72;;;2.33;;
80297;SDS011;69599;52.622;9.230;2023-08-17T01:22:37;5.18;;;1.98;;
80297;SDS011;69599;52.622;9.230;2023-08-17T01:25:08;3.67;;;1.95;;
80297;SDS011;69599;52.622;9.230;2023-08-17T01:27:38;4.35;;;1.75;;
80297;SDS011;69599;52.622;9.230;2023-08-17T01:30:08;3.20;;;1.80;;
80297;SDS011;69599;52.622;9.230;2023-08-17T01:32:48;2.65;;;1.63;;
80297;SDS011;69599;52.622;9.230;2023-08-17T01:38:17;2.85;;;1.60;;
80297;SDS011;69599;52.622;9.230;2023-08-17T01:40:44;4.30;;;1.85;;
80297;SDS011;69599;52.622;9.230;2023-08-17T01:43:10;4.22;;;1.80;;
80297;SDS011;69599;52.622;9.230;2023-08-17T01:45:37;6.95;;;1.73;;
80297;SDS011;69599;52.622;9.230;2023-08-17T01:48:03;3.83;;;1.80;;
80297;SDS011;69599;52.622;9.230;2023-08-17T01:50:28;3.53;;;1.77;;
80297;SDS011;69599;52.622;9.230;2023-08-17T01:52:54;4.90;;;1.75;;
80297;SDS011;69599;52.622;9.230;2023-08-17T01:55:20;3.97;;;1.75;;
80297;SDS011;69599;52.622;9.230;2023-08-17T01:57:47;5.10;;;2.08;;
80297;SDS011;69599;52.622;9.230;2023-08-17T02:00:13;2.47;;;1.60;;
80297;SDS011;69599;52.622;9.230;2023-08-17T02:02:39;6.28;;;2.03;;
80297;SDS011;69599;52.622;9.230;2023-08-17T02:05:04;3.33;;;1.92;;
80297;SDS011;69599;52.622;9.230;2023-08-17T02:07:30;5.22;;;2.10;;
80297;SDS011;69599;52.622;9.230;2023-08-17T02:09:55;3.10;;;1.50;;
80297;SDS011;69599;52.622;9.230;2023-08-17T02:12:20;6.25;;;1.90;;
80297;SDS011;69599;52.622;9.230;2023-08-17T02:14:46;3.75;;;1.98;;
80297;SDS011;69599;52.622;9.230;2023-08-17T02:17:11;4.35;;;1.83;;
80297;SDS011;69599;52.622;9.230;2023-08-17T02:19:37;4.82;;;2.10;;
80297;SDS011;69599;52.622;9.230;2023-08-17T02:22:02;3.72;;;1.90;;
80297;SDS011;69599;52.622;9.230;2023-08-17T02:24:28;7.78;;;2.38;;
80297;SDS011;69599;52.622;9.230;2023-08-17T02:26:53;5.07;;;1.70;;
80297;SDS011;69599;52.622;9.230;2023-08-17T02:29:19;6.50;;;1.90;;
80297;SDS011;69599;52.622;9.230;2023-08-17T02:31:44;5.38;;;2.78;;
80297;SDS011;69599;52.622;9.230;2023-08-17T02:34:09;4.65;;;2.20;;
80297;SDS011;69599;52.622;9.230;2023-08-17T02:36:35;2.95;;;2.03;;
80297;SDS011;69599;52.622;9.230;2023-08-17T02:39:00;4.93;;;2.10;;
80297;SDS011;69599;52.622;9.230;2023-08-17T02:41:26;10.27;;;1.90;;
80297;SDS011;69599;52.622;9.230;2023-08-17T02:43:51;3.80;;;1.90;;
80297;SDS011;69599;52.622;9.230;2023-08-17T02:46:17;12.35;;;2.28;;
80297;SDS011;69599;52.622;9.230;2023-08-17T02:48:42;3.78;;;2.08;;
80297;SDS011;69599;52.622;9.230;2023-08-17T02:51:07;4.43;;;2.33;;
80297;SDS011;69599;52.622;9.230;2023-08-17T02:53:33;5.18;;;1.90;;
80297;SDS011;69599;52.622;9.230;2023-08-17T02:55:58;3.95;;;1.60;;
80297;SDS011;69599;52.622;9.230;2023-08-17T02:58:23;3.67;;;1.80;;
80297;SDS011;69599;52.622;9.230;2023-08-17T03:00:52;4.28;;;2.38;;
80297;SDS011;69599;52.622;9.230;2023-08-17T03:03:18;5.25;;;2.00;;
80297;SDS011;69599;52.622;9.230;2023-08-17T03:05:44;4.30;;;1.80;;
80297;SDS011;69599;52.622;9.230;2023-08-17T03:08:09;3.22;;;1.88;;
80297;SDS011;69599;52.622;9.230;2023-08-17T03:10:34;3.80;;;2.60;;
80297;SDS011;69599;52.622;9.230;2023-08-17T03:13:00;7.10;;;2.05;;
80297;SDS011;69599;52.622;9.230;2023-08-17T03:15:25;3.60;;;2.00;;
80297;SDS011;69599;52.622;9.230;2023-08-17T03:17:51;4.45;;;1.85;;
80297;SDS011;69599;52.622;9.230;2023-08-17T03:20:16;5.18;;;2.25;;
80297;SDS011;69599;52.622;9.230;2023-08-17T03:22:41;4.97;;;2.30;;
80297;SDS011;69599;52.622;9.230;2023-08-17T03:25:07;6.32;;;2.42;;
80297;SDS011;69599;52.622;9.230;2023-08-17T03:27:33;5.28;;;2.50;;
80297;SDS011;69599;52.622;9.230;2023-08-17T03:29:58;7.18;;;2.35;;
80297;SDS011;69599;52.622;9.230;2023-08-17T03:32:24;4.85;;;2.33;;
80297;SDS011;69599;52.622;9.230;2023-08-17T03:34:49;5.90;;;2.30;;
80297;SDS011;69599;52.622;9.230;2023-08-17T03:37:14;7.32;;;3.03;;
80297;SDS011;69599;52.622;9.230;2023-08-17T03:39:40;5.47;;;2.50;;
80297;SDS011;69599;52.622;9.230;2023-08-17T03:42:05;5.20;;;2.60;;
80297;SDS011;69599;52.622;9.230;2023-08-17T03:44:31;5.57;;;2.58;;
80297;SDS011;69599;52.622;9.230;2023-08-17T03:46:56;2.85;;;2.42;;
80297;SDS011;69599;52.622;9.230;2023-08-17T03:49:21;4.78;;;2.33;;
80297;SDS011;69599;52.622;9.230;2023-08-17T03:51:47;5.13;;;2.65;;
80297;SDS011;69599;52.622;9.230;2023-08-17T03:54:12;7.10;;;2.38;;
80297;SDS011;69599;52.622;9.230;2023-08-17T03:56:38;4.53;;;2.67;;
80297;SDS011;69599;52.622;9.230;2023-08-17T03:59:03;8.18;;;3.33;;
80297;SDS011;69599;52.622;9.230;2023-08-17T04:01:29;5.13;;;2.53;;
80297;SDS011;69599;52.622;9.230;2023-08-17T04:03:54;5.82;;;3.35;;
80297;SDS011;69599;52.622;9.230;2023-08-17T04:06:20;4.05;;;2.78;;
80297;SDS011;69599;52.622;9.230;2023-08-17T04:08:46;5.70;;;2.65;;
80297;SDS011;69599;52.622;9.230;2023-08-17T04:11:11;4.85;;;3.10;;
80297;SDS011;69599;52.622;9.230;2023-08-17T04:13:36;5.40;;;2.85;;
80297;SDS011;69599;52.622;9.230;2023-08-17T04:16:02;6.80;;;2.50;;
80297;SDS011;69599;52.622;9.230;2023-08-17T04:18:27;7.22;;;2.40;;
80297;SDS011;69599;52.622;9.230;2023-08-17T04:20:53;5.53;;;2.35;;
80297;SDS011;69599;52.622;9.230;2023-08-17T04:23:18;6.57;;;2.38;;
80297;SDS011;69599;52.622;9.230;2023-08-17T04:25:44;6.80;;;3.03;;
80297;SDS011;69599;52.622;9.230;2023-08-17T04:28:11;5.65;;;2.53;;
80297;SDS011;69599;52.622;9.230;2023-08-17T04:30:37;6.05;;;3.15;;
80297;SDS011;69599;52.622;9.230;2023-08-17T04:33:03;4.72;;;2.55;;
80297;SDS011;69599;52.622;9.230;2023-08-17T04:35:29;8.90;;;2.92;;
80297;SDS011;69599;52.622;9.230;2023-08-17T04:37:54;5.25;;;2.45;;
80297;SDS011;69599;52.622;9.230;2023-08-17T04:40:20;4.75;;;2.83;;
80297;SDS011;69599;52.622;9.230;2023-08-17T04:42:45;6.20;;;2.70;;
80297;SDS011;69599;52.622;9.230;2023-08-17T04:45:10;5.80;;;3.25;;
80297;SDS011;69599;52.622;9.230;2023-08-17T04:47:36;4.68;;;2.38;;
80297;SDS011;69599;52.622;9.230;2023-08-17T04:50:01;6.78;;;2.78;;
80297;SDS011;69599;52.622;9.230;2023-08-17T04:52:27;5.68;;;2.50;;
80297;SDS011;69599;52.622;9.230;2023-08-17T04:54:52;5.35;;;2.72;;
80297;SDS011;69599;52.622;9.230;2023-08-17T04:57:18;4.38;;;2.45;;
80297;SDS011;69599;52.622;9.230;2023-08-17T04:59:44;4.25;;;2.80;;
80297;SDS011;69599;52.622;9.230;2023-08-17T05:02:09;5.50;;;2.83;;
80297;SDS011;69599;52.622;9.230;2023-08-17T05:04:35;4.85;;;2.72;;
80297;SDS011;69599;52.622;9.230;2023-08-17T05:07:01;6.20;;;2.60;;
80297;SDS011;69599;52.622;9.230;2023-08-17T05:09:27;4.47;;;2.92;;
80297;SDS011;69599;52.622;9.230;2023-08-17T05:11:52;4.78;;;2.75;;
80297;SDS011;69599;52.622;9.230;2023-08-17T05:14:18;7.97;;;2.95;;
80297;SDS011;69599;52.622;9.230;2023-08-17T05:16:43;6.32;;;2.75;;
80297;SDS011;69599;52.622;9.230;2023-08-17T05:19:08;5.63;;;3.40;;
80297;SDS011;69599;52.622;9.230;2023-08-17T05:21:34;3.22;;;2.53;;
80297;SDS011;69599;52.622;9.230;2023-08-17T05:24:00;5.20;;;2.75;;
80297;SDS011;69599;52.622;9.230;2023-08-17T05:26:25;7.68;;;3.28;;
80297;SDS011;69599;52.622;9.230;2023-08-17T05:28:51;8.95;;;3.00;;
80297;SDS011;69599;52.622;9.230;2023-08-17T05:31:16;6.10;;;3.05;;
80297;SDS011;69599;52.622;9.230;2023-08-17T05:33:41;7.32;;;2.85;;
80297;SDS011;69599;52.622;9.230;2023-08-17T05:36:07;3.53;;;2.47;;
80297;SDS011;69599;52.622;9.230;2023-08-17T05:38:33;6.05;;;2.90;;
80297;SDS011;69599;52.622;9.230;2023-08-17T05:40:58;4.68;;;3.10;;
80297;SDS011;69599;52.622;9.230;2023-08-17T05:43:24;5.90;;;2.95;;
80297;SDS011;69599;52.622;9.230;2023-08-17T05:45:50;4.80;;;2.75;;
80297;SDS011;69599;52.622;9.230;2023-08-17T05:48:15;5.20;;;3.08;;
80297;SDS011;69599;52.622;9.230;2023-08-17T05:50:44;5.20;;;3.20;;
80297;SDS011;69599;52.622;9.230;2023-08-17T05:53:09;6.05;;;3.25;;
80297;SDS011;69599;52.622;9.230;2023-08-17T05:55:34;6.03;;;3.13;;
80297;SDS011;69599;52.622;9.230;2023-08-17T05:58:00;6.18;;;2.90;;
80297;SDS011;69599;52.622;9.230;2023-08-17T06:00:26;6.40;;;3.35;;
80297;SDS011;69599;52.622;9.230;2023-08-17T06:02:51;6.28;;;3.50;;
80297;SDS011;69599;52.622;9.230;2023-08-17T06:05:17;5.57;;;2.90;;
80297;SDS011;69599;52.622;9.230;2023-08-17T06:07:43;4.30;;;3.13;;
80297;SDS011;69599;52.622;9.230;2023-08-17T06:10:09;4.18;;;3.35;;
80297;SDS011;69599;52.622;9.230;2023-08-17T06:12:34;5.50;;;3.30;;
80297;SDS011;69599;52.622;9.230;2023-08-17T06:15:01;5.07;;;3.35;;
80297;SDS011;69599;52.622;9.230;2023-08-17T06:17:27;5.72;;;3.22;;
80297;SDS011;69599;52.622;9.230;2023-08-17T06:19:53;13.88;;;3.78;;
80297;SDS011;69599;52.622;9.230;2023-08-17T06:22:18;6.68;;;3.38;;
80297;SDS011;69599;52.622;9.230;2023-08-17T06:24:43;4.35;;;3.60;;
80297;SDS011;69599;52.622;9.230;2023-08-17T06:27:11;5.75;;;3.40;;
80297;SDS011;69599;52.622;9.230;2023-08-17T06:29:40;4.78;;;3.40;;
80297;SDS011;69599;52.622;9.230;2023-08-17T06:32:06;4.57;;;3.08;;
80297;SDS011;69599;52.622;9.230;2023-08-17T06:34:31;6.53;;;3.80;;
80297;SDS011;69599;52.622;9.230;2023-08-17T06:37:01;6.10;;;3.42;;
80297;SDS011;69599;52.622;9.230;2023-08-17T06:39:27;5.18;;;3.75;;
80297;SDS011;69599;52.622;9.230;2023-08-17T06:41:53;5.85;;;3.65;;
80297;SDS011;69599;52.622;9.230;2023-08-17T06:44:19;6.55;;;3.40;;
80297;SDS011;69599;52.622;9.230;2023-08-17T06:46:44;5.35;;;3.25;;
80297;SDS011;69599;52.622;9.230;2023-08-17T06:49:10;4.88;;;3.60;;
80297;SDS011;69599;52.622;9.230;2023-08-17T06:51:36;4.93;;;3.65;;
80297;SDS011;69599;52.622;9.230;2023-08-17T06:54:01;6.93;;;3.78;;
80297;SDS011;69599;52.622;9.230;2023-08-17T06:56:27;6.45;;;4.18;;
80297;SDS011;69599;52.622;9.230;2023-08-17T06:58:52;6.50;;;3.83;;
80297;SDS011;69599;52.622;9.230;2023-08-17T07:01:18;5.13;;;3.50;;
80297;SDS011;69599;52.622;9.230;2023-08-17T07:03:43;6.53;;;3.75;;
80297;SDS011;69599;52.622;9.230;2023-08-17T07:06:09;5.85;;;3.40;;
80297;SDS011;69599;52.622;9.230;2023-08-17T07:08:35;5.32;;;3.83;;
80297;SDS011;69599;52.622;9.230;2023-08-17T07:11:00;5.30;;;3.42;;
80297;SDS011;69599;52.622;9.230;2023-08-17T07:13:26;7.43;;;3.70;;
80297;SDS011;69599;52.622;9.230;2023-08-17T07:15:51;6.20;;;3.50;;
80297;SDS011;69599;52.622;9.230;2023-08-17T07:18:17;6.10;;;3.85;;
80297;SDS011;69599;52.622;9.230;2023-08-17T07:20:42;5.63;;;3.47;;
80297;SDS011;69599;52.622;9.230;2023-08-17T07:23:07;7.50;;;3.47;;
80297;SDS011;69599;52.622;9.230;2023-08-17T07:25:33;5.05;;;3.25;;
80297;SDS011;69599;52.622;9.230;2023-08-17T07:27:59;4.68;;;3.30;;
80297;SDS011;69599;52.622;9.230;2023-08-17T07:30:24;5.18;;;3.42;;
80297;SDS011;69599;52.622;9.230;2023-08-17T07:32:49;5.05;;;3.47;;
80297;SDS011;69599;52.622;9.230;2023-08-17T07:35:15;4.43;;;3.40;;
80297;SDS011;69599;52.622;9.230;2023-08-17T07:37:40;4.80;;;3.15;;
80297;SDS011;69599;52.622;9.230;2023-08-17T07:40:06;4.72;;;3.60;;
80297;SDS011;69599;52.622;9.230;2023-08-17T07:42:32;3.85;;;3.40;;
80297;SDS011;69599;52.622;9.230;2023-08-17T07:44:58;5.22;;;3.35;;
80297;SDS011;69599;52.622;9.230;2023-08-17T07:47:23;6.10;;;3.28;;
80297;SDS011;69599;52.622;9.230;2023-08-17T07:49:49;5.15;;;3.38;;
80297;SDS011;69599;52.622;9.230;2023-08-17T07:52:14;6.15;;;3.58;;
80297;SDS011;69599;52.622;9.230;2023-08-17T07:54:40;5.80;;;3.28;;
80297;SDS011;69599;52.622;9.230;2023-08-17T07:57:05;5.45;;;3.10;;
80297;SDS011;69599;52.622;9.230;2023-08-17T07:59:31;4.50;;;3.50;;
80297;SDS011;69599;52.622;9.230;2023-08-17T08:01:56;5.13;;;3.28;;
80297;SDS011;69599;52.622;9.230;2023-08-17T08:04:22;5.63;;;3.63;;
80297;SDS011;69599;52.622;9.230;2023-08-17T08:06:47;7.53;;;3.90;;
80297;SDS011;69599;52.622;9.230;2023-08-17T08:09:13;4.15;;;3.10;;
80297;SDS011;69599;52.622;9.230;2023-08-17T08:11:38;6.57;;;3.20;;
80297;SDS011;69599;52.622;9.230;2023-08-17T08:14:03;6.45;;;3.03;;
80297;SDS011;69599;52.622;9.230;2023-08-17T08:16:29;6.70;;;4.13;;
80297;SDS011;69599;52.622;9.230;2023-08-17T08:18:55;5.15;;;2.97;;
80297;SDS011;69599;52.622;9.230;2023-08-17T08:21:21;4.13;;;3.03;;
80297;SDS011;69599;52.622;9.230;2023-08-17T08:23:46;5.32;;;2.95;;
80297;SDS011;69599;52.622;9.230;2023-08-17T08:26:12;4.97;;;2.85;;
80297;SDS011;69599;52.622;9.230;2023-08-17T08:28:37;3.80;;;2.85;;
80297;SDS011;69599;52.622;9.230;2023-08-17T08:31:03;3.42;;;2.70;;
80297;SDS011;69599;52.622;9.230;2023-08-17T08:33:29;5.38;;;2.72;;
80297;SDS011;69599;52.622;9.230;2023-08-17T08:35:54;4.00;;;2.75;;
80297;SDS011;69599;52.622;9.230;2023-08-17T08:38:20;5.70;;;3.22;;
80297;SDS011;69599;52.622;9.230;2023-08-17T08:40:46;2.97;;;2.40;;
80297;SDS011;69599;52.622;9.230;2023-08-17T08:43:12;5.22;;;2.90;;
80297;SDS011;69599;52.622;9.230;2023-08-17T08:45:38;4.13;;;2.63;;
80297;SDS011;69599;52.622;9.230;2023-08-17T08:48:07;4.05;;;2.25;;
80297;SDS011;69599;52.622;9.230;2023-08-17T08:50:33;3.47;;;2.13;;
80297;SDS011;69599;52.622;9.230;2023-08-17T08:53:02;5.25;;;2.38;;
80297;SDS011;69599;52.622;9.230;2023-08-17T08:55:30;2.70;;;1.90;;
80297;SDS011;69599;52.622;9.230;2023-08-17T08:57:59;3.03;;;2.08;;
80297;SDS011;69599;52.622;9.230;2023-08-17T09:00:26;2.38;;;2.05;;
80297;SDS011;69599;52.622;9.230;2023-08-17T09:02:51;2.65;;;1.98;;
80297;SDS011;69599;52.622;9.230;2023-08-17T09:05:17;3.30;;;2.13;;
80297;SDS011;69599;52.622;9.230;2023-08-17T09:07:43;6.63;;;1.98;;
80297;SDS011;69599;52.622;9.230;2023-08-17T09:10:11;4.30;;;1.92;;
80297;SDS011;69599;52.622;9.230;2023-08-17T09:15:04;2.50;;;1.65;;
80297;SDS011;69599;52.622;9.230;2023-08-17T09:17:31;3.63;;;1.73;;
80297;SDS011;69599;52.622;9.230;2023-08-17T09:19:59;2.03;;;1.60;;
80297;SDS011;69599;52.622;9.230;2023-08-17T09:22:25;3.60;;;1.58;;
80297;SDS011;69599;52.622;9.230;2023-08-17T09:24:51;2.83;;;1.90;;
80297;SDS011;69599;52.622;9.230;2023-08-17T09:27:17;2.35;;;1.70;;
80297;SDS011;69599;52.622;9.230;2023-08-17T09:29:42;2.72;;;1.60;;
80297;SDS011;69599;52.622;9.230;2023-08-17T09:32:10;1.83;;;1.33;;
80297;SDS011;69599;52.622;9.230;2023-08-17T09:34:36;2.03;;;1.27;;
80297;SDS011;69599;52.622;9.230;2023-08-17T09:37:02;2.13;;;1.42;;
80297;SDS011;69599;52.622;9.230;2023-08-17T09:39:29;1.52;;;1.13;;
80297;SDS011;69599;52.622;9.230;2023-08-17T09:41:55;2.70;;;1.23;;
80297;SDS011;69599;52.622;9.230;2023-08-17T09:44:20;1.02;;;0.82;;
80297;SDS011;69599;52.622;9.230;2023-08-17T09:46:46;2.22;;;1.13;;
80297;SDS011;69599;52.622;9.230;2023-08-17T09:49:12;3.65;;;1.20;;
80297;SDS011;69599;52.622;9.230;2023-08-17T09:51:38;2.63;;;1.10;;
80297;SDS011;69599;52.622;9.230;2023-08-17T09:54:06;2.28;;;1.40;;
80297;SDS011;69599;52.622;9.230;2023-08-17T09:56:32;2.58;;;1.50;;
80297;SDS011;69599;52.622;9.230;2023-08-17T09:58:58;1.95;;;1.40;;
80297;SDS011;69599;52.622;9.230;2023-08-17T10:01:23;2.90;;;1.60;;
80297;SDS011;69599;52.622;9.230;2023-08-17T10:03:49;3.20;;;2.22;;
80297;SDS011;69599;52.622;9.230;2023-08-17T10:06:16;3.65;;;1.70;;
80297;SDS011;69599;52.622;9.230;2023-08-17T10:08:43;3.65;;;2.10;;
80297;SDS011;69599;52.622;9.230;2023-08-17T10:11:12;2.28;;;1.90;;
80297;SDS011;69599;52.622;9.230;2023-08-17T10:16:23;3.67;;;2.13;;
80297;SDS011;69599;52.622;9.230;2023-08-17T10:24:07;2.40;;;2.10;;
80297;SDS011;69599;52.622;9.230;2023-08-17T10:26:32;2.75;;;2.17;;
80297;SDS011;69599;52.622;9.230;2023-08-17T10:28:58;4.38;;;2.53;;
80297;SDS011;69599;52.622;9.230;2023-08-17T10:31:26;5.90;;;2.30;;
80297;SDS011;69599;52.622;9.230;2023-08-17T10:33:52;3.55;;;2.17;;
80297;SDS011;69599;52.622;9.230;2023-08-17T10:36:18;3.17;;;1.80;;
80297;SDS011;69599;52.622;9.230;2023-08-17T10:38:43;3.10;;;2.05;;
80297;SDS011;69599;52.622;9.230;2023-08-17T10:41:10;3.35;;;2.25;;
80297;SDS011;69599;52.622;9.230;2023-08-17T10:43:55;3.25;;;2.25;;
80297;SDS011;69599;52.622;9.230;2023-08-17T10:46:21;2.60;;;2.00;;
80297;SDS011;69599;52.622;9.230;2023-08-17T10:48:47;2.55;;;1.70;;
80297;SDS011;69599;52.622;9.230;2023-08-17T10:51:12;3.25;;;1.92;;
80297;SDS011;69599;52.622;9.230;2023-08-17T10:53:44;2.13;;;1.50;;
80297;SDS011;69599;52.622;9.230;2023-08-17T10:56:11;2.33;;;1.73;;
80297;SDS011;69599;52.622;9.230;2023-08-17T10:58:37;2.85;;;1.83;;
80297;SDS011;69599;52.622;9.230;2023-08-17T11:01:03;3.13;;;1.77;;
80297;SDS011;69599;52.622;9.230;2023-08-17T11:03:28;4.70;;;1.83;;
80297;SDS011;69599;52.622;9.230;2023-08-17T11:05:55;2.08;;;1.20;;
80297;SDS011;69599;52.622;9.230;2023-08-17T11:13:27;1.95;;;1.60;;
80297;SDS011;69599;52.622;9.230;2023-08-17T11:15:54;4.18;;;1.77;;
80297;SDS011;69599;52.622;9.230;2023-08-17T11:18:20;3.80;;;1.83;;
80297;SDS011;69599;52.622;9.230;2023-08-17T11:20:45;3.25;;;1.70;;
80297;SDS011;69599;52.622;9.230;2023-08-17T11:23:12;2.90;;;1.63;;
80297;SDS011;69599;52.622;9.230;2023-08-17T11:25:37;3.20;;;1.63;;
80297;SDS011;69599;52.622;9.230;2023-08-17T11:28:03;2.92;;;1.40;;
80297;SDS011;69599;52.622;9.230;2023-08-17T11:30:30;2.58;;;1.73;;
80297;SDS011;69599;52.622;9.230;2023-08-17T11:32:59;2.75;;;1.55;;
80297;SDS011;69599;52.622;9.230;2023-08-17T11:35:24;3.25;;;1.45;;
80297;SDS011;69599;52.622;9.230;2023-08-17T11:37:50;2.03;;;1.50;;
80297;SDS011;69599;52.622;9.230;2023-08-17T11:40:15;2.00;;;1.65;;
80297;SDS011;69599;52.622;9.230;2023-08-17T11:42:41;2.78;;;1.63;;
80297;SDS011;69599;52.622;9.230;2023-08-17T11:45:07;2.63;;;1.75;;
80297;SDS011;69599;52.622;9.230;2023-08-17T11:50:06;3.17;;;1.80;;
80297;SDS011;69599;52.622;9.230;2023-08-17T11:52:33;1.88;;;1.40;;
80297;SDS011;69599;52.622;9.230;2023-08-17T11:54:59;2.50;;;1.80;;
80297;SDS011;69599;52.622;9.230;2023-08-17T11:57:25;2.67;;;1.30;;
80297;SDS011;69599;52.622;9.230;2023-08-17T11:59:57;3.55;;;1.70;;
80297;SDS011;69599;52.622;9.230;2023-08-17T12:02:23;2.83;;;1.90;;
80297;SDS011;69599;52.622;9.230;2023-08-17T12:04:49;2.60;;;1.52;;
80297;SDS011;69599;52.622;9.230;2023-08-17T12:07:15;2.50;;;1.50;;
80297;SDS011;69599;52.622;9.230;2023-08-17T12:09:44;2.38;;;1.70;;
80297;SDS011;69599;52.622;9.230;2023-08-17T12:12:10;1.98;;;1.55;;
80297;SDS011;69599;52.622;9.230;2023-08-17T12:14:36;2.47;;;1.30;;
80297;SDS011;69599;52.622;9.230;2023-08-17T12:17:02;2.70;;;1.50;;
80297;SDS011;69599;52.622;9.230;2023-08-17T12:19:29;2.50;;;1.65;;
80297;SDS011;69599;52.622;9.230;2023-08-17T12:21:54;4.15;;;1.60;;
80297;SDS011;69599;52.622;9.230;2023-08-17T12:24:25;2.97;;;1.80;;
80297;SDS011;69599;52.622;9.230;2023-08-17T12:26:50;2.42;;;1.88;;
80297;SDS011;69599;52.622;9.230;2023-08-17T12:29:16;2.40;;;2.10;;
80297;SDS011;69599;52.622;9.230;2023-08-17T12:31:41;3.25;;;1.75;;
80297;SDS011;69599;52.622;9.230;2023-08-17T12:34:07;3.08;;;1.60;;
80297;SDS011;69599;52.622;9.230;2023-08-17T12:36:32;2.72;;;2.00;;
80297;SDS011;69599;52.622;9.230;2023-08-17T12:38:58;2.70;;;1.95;;
80297;SDS011;69599;52.622;9.230;2023-08-17T12:41:23;3.13;;;2.15;;
80297;SDS011;69599;52.622;9.230;2023-08-17T12:43:49;2.55;;;1.50;;
80297;SDS011;69599;52.622;9.230;2023-08-17T12:46:14;3.75;;;2.13;;
80297;SDS011;69599;52.622;9.230;2023-08-17T12:48:40;2.63;;;2.00;;
80297;SDS011;69599;52.622;9.230;2023-08-17T12:51:05;4.93;;;2.72;;
80297;SDS011;69599;52.622;9.230;2023-08-17T12:53:31;2.55;;;2.03;;
80297;SDS011;69599;52.622;9.230;2023-08-17T12:55:56;3.33;;;2.50;;
80297;SDS011;69599;52.622;9.230;2023-08-17T12:58:22;2.70;;;1.80;;
80297;SDS011;69599;52.622;9.230;2023-08-17T13:00:47;1.92;;;1.67;;
80297;SDS011;69599;52.622;9.230;2023-08-17T13:03:15;4.38;;;3.00;;
80297;SDS011;69599;52.622;9.230;2023-08-17T13:05:41;3.92;;;2.17;;
80297;SDS011;69599;52.622;9.230;2023-08-17T13:08:07;2.80;;;2.10;;
80297;SDS011;69599;52.622;9.230;2023-08-17T13:10:33;6.60;;;2.22;;
80297;SDS011;69599;52.622;9.230;2023-08-17T13:12:59;3.38;;;1.88;;
80297;SDS011;69599;52.622;9.230;2023-08-17T13:15:24;3.42;;;2.25;;
80297;SDS011;69599;52.622;9.230;2023-08-17T13:17:50;2.33;;;1.90;;
80297;SDS011;69599;52.622;9.230;2023-08-17T13:20:15;2.72;;;1.67;;
80297;SDS011;69599;52.622;9.230;2023-08-17T13:22:41;2.92;;;2.08;;
80297;SDS011;69599;52.622;9.230;2023-08-17T13:25:06;3.45;;;1.90;;
80297;SDS011;69599;52.622;9.230;2023-08-17T13:27:32;3.53;;;1.98;;
80297;SDS011;69599;52.622;9.230;2023-08-17T13:29:57;3.13;;;1.90;;
80297;SDS011;69599;52.622;9.230;2023-08-17T13:32:26;3.78;;;1.92;;
80297;SDS011;69599;52.622;9.230;2023-08-17T13:34:52;2.22;;;1.35;;
80297;SDS011;69599;52.622;9.230;2023-08-17T13:37:18;2.08;;;1.73;;
80297;SDS011;69599;52.622;9.230;2023-08-17T13:39:43;3.30;;;1.85;;
80297;SDS011;69599;52.622;9.230;2023-08-17T13:42:09;3.13;;;1.60;;
80297;SDS011;69599;52.622;9.230;2023-08-17T13:44:34;2.03;;;1.63;;
80297;SDS011;69599;52.622;9.230;2023-08-17T13:47:00;2.53;;;1.83;;
80297;SDS011;69599;52.622;9.230;2023-08-17T13:49:25;2.58;;;1.77;;
80297;SDS011;69599;52.622;9.230;2023-08-17T13:51:52;2.80;;;1.52;;
80297;SDS011;69599;52.622;9.230;2023-08-17T13:54:18;1.90;;;1.60;;
80297;SDS011;69599;52.622;9.230;2023-08-17T13:56:44;2.03;;;1.60;;
80297;SDS011;69599;52.622;9.230;2023-08-17T13:59:09;2.13;;;1.48;;
80297;SDS011;69599;52.622;9.230;2023-08-17T14:01:34;2.78;;;1.40;;
80297;SDS011;69599;52.622;9.230;2023-08-17T14:04:00;2.38;;;1.80;;
80297;SDS011;69599;52.622;9.230;2023-08-17T14:06:25;1.88;;;1.60;;
80297;SDS011;69599;52.622;9.230;2023-08-17T14:08:51;2.40;;;1.48;;
80297;SDS011;69599;52.622;9.230;2023-08-17T14:11:16;2.10;;;1.90;;
80297;SDS011;69599;52.622;9.230;2023-08-17T14:13:42;3.45;;;1.90;;
80297;SDS011;69599;52.622;9.230;2023-08-17T14:16:07;3.92;;;2.10;;
80297;SDS011;69599;52.622;9.230;2023-08-17T14:18:32;4.32;;;1.92;;
80297;SDS011;69599;52.622;9.230;2023-08-17T14:20:58;3.60;;;1.90;;
80297;SDS011;69599;52.622;9.230;2023-08-17T14:23:23;2.60;;;1.73;;
80297;SDS011;69599;52.622;9.230;2023-08-17T14:25:49;2.35;;;1.70;;
80297;SDS011;69599;52.622;9.230;2023-08-17T14:28:16;2.53;;;1.55;;
80297;SDS011;69599;52.622;9.230;2023-08-17T14:30:42;3.45;;;1.80;;
80297;SDS011;69599;52.622;9.230;2023-08-17T14:33:08;2.70;;;2.50;;
80297;SDS011;69599;52.622;9.230;2023-08-17T14:35:33;2.47;;;1.60;;
80297;SDS011;69599;52.622;9.230;2023-08-17T14:37:58;3.05;;;1.60;;
80297;SDS011;69599;52.622;9.230;2023-08-17T14:40:26;3.05;;;1.60;;
80297;SDS011;69599;52.622;9.230;2023-08-17T14:42:51;3.00;;;1.58;;
80297;SDS011;69599;52.622;9.230;2023-08-17T14:45:17;2.75;;;1.85;;
80297;SDS011;69599;52.622;9.230;2023-08-17T14:47:42;7.32;;;2.10;;
80297;SDS011;69599;52.622;9.230;2023-08-17T14:50:08;3.22;;;1.88;;
80297;SDS011;69599;52.622;9.230;2023-08-17T14:52:33;3.00;;;1.83;;
80297;SDS011;69599;52.622;9.230;2023-08-17T14:54:59;2.40;;;1.67;;
80297;SDS011;69599;52.622;9.230;2023-08-17T14:57:24;2.95;;;1.50;;
80297;SDS011;69599;52.622;9.230;2023-08-17T14:59:49;3.63;;;1.60;;
80297;SDS011;69599;52.622;9.230;2023-08-17T15:02:15;2.40;;;1.50;;
80297;SDS011;69599;52.622;9.230;2023-08-17T15:04:43;3.55;;;1.60;;